Time;durP1;ratioP1;P1;durP2;ratioP2;P2;SDS_P1;SDS_P2;PMS_P1;PMS_P2;Temp;Humidity;BMP_temperature;BMP_pressure;BME280_temperature;BME280_humidity;BME280_pressure;Samples;Min_cycle;Max_cycle;Signal;HPM_P1;HPM_P2
2023/06/29 00:00:40;;;;;;;45.03;35.95;;;19.20;99.90;;;;;;4938607;28;20032;-50
2023/06/29 00:03:07;;;;;;;42.97;35.28;;;19.20;99.90;;;;;;4956071;28;20475;-44
2023/06/29 00:05:32;;;;;;;46.45;36.78;;;19.10;99.90;;;;;;4956211;28;20384;-48
2023/06/29 00:07:59;;;;;;;45.20;36.80;;;19.10;99.90;;;;;;4955683;28;20098;-50
2023/06/29 00:10:25;;;;;;;45.53;36.95;;;19.20;99.90;;;;;;4956048;28;20402;-50
2023/06/29 00:12:52;;;;;;;44.70;35.55;;;19.20;99.90;;;;;;4955712;28;20557;-48
2023/06/29 00:15:18;;;;;;;43.60;35.65;;;19.00;99.90;;;;;;4959821;28;20027;-50
2023/06/29 00:17:47;;;;;;;46.72;37.30;;;19.20;99.90;;;;;;4974939;28;20098;-50
2023/06/29 00:20:14;;;;;;;45.50;34.90;;;19.20;99.90;;;;;;4974809;28;20494;-48
2023/06/29 00:22:48;;;;;;;44.35;36.75;;;19.00;99.90;;;;;;4966825;28;20031;-48
2023/06/29 00:25:14;;;;;;;;;;;19.20;99.90;;;;;;4938078;28;20047;-50
2023/06/29 00:27:39;;;;;;;44.58;35.75;;;19.20;99.90;;;;;;4955630;28;19926;-49
2023/06/29 00:30:07;;;;;;;46.88;37.13;;;19.00;99.90;;;;;;4971748;28;20038;-50
2023/06/29 00:32:33;;;;;;;47.03;36.05;;;19.20;99.90;;;;;;4955680;28;20042;-46
2023/06/29 00:34:58;;;;;;;43.95;36.80;;;19.00;99.90;;;;;;4937984;28;20035;-47
2023/06/29 00:37:25;;;;;;;44.17;36.17;;;19.10;99.90;;;;;;4955489;28;20443;-49
2023/06/29 00:39:50;;;;;;;45.85;35.88;;;19.00;99.90;;;;;;4955390;28;20043;-50
2023/06/29 00:42:16;;;;;;;47.75;35.30;;;19.00;99.90;;;;;;4938341;28;20527;-47
2023/06/29 00:44:42;;;;;;;47.92;37.40;;;19.00;99.90;;;;;;4974384;28;20046;-50
2023/06/29 00:47:08;;;;;;;45.58;35.67;;;19.10;99.90;;;;;;4961944;28;20458;-51
2023/06/29 00:49:34;;;;;;;46.40;36.28;;;19.00;99.90;;;;;;4954602;28;20883;-49
2023/06/29 00:52:00;;;;;;;48.38;37.20;;;19.00;99.90;;;;;;4955341;28;20497;-49
2023/06/29 00:54:26;;;;;;;44.80;34.80;;;19.00;99.90;;;;;;4954950;28;20042;-49
2023/06/29 00:56:52;;;;;;;45.47;35.80;;;19.10;99.90;;;;;;4954064;28;20039;-52
2023/06/29 00:59:19;;;;;;;51.10;36.53;;;19.00;99.90;;;;;;4937446;28;20043;-46
2023/06/29 01:01:45;;;;;;;43.95;34.85;;;19.00;99.90;;;;;;4966571;28;20516;-49
2023/06/29 01:04:22;;;;;;;42.83;35.30;;;19.20;99.90;;;;;;4971758;28;20502;-49
2023/06/29 01:07:13;;;;;;;43.65;34.15;;;18.90;99.90;;;;;;4963905;28;20527;-52
2023/06/29 01:09:40;;;;;;;42.90;34.13;;;19.10;99.90;;;;;;4953591;28;20050;-50
2023/06/29 01:12:07;;;;;;;43.95;34.75;;;19.00;99.90;;;;;;4954801;28;20434;-50
2023/06/29 01:14:34;;;;;;;39.85;33.35;;;19.10;99.90;;;;;;4954885;28;20047;-44
2023/06/29 01:17:01;;;;;;;45.63;34.58;;;19.00;99.90;;;;;;4954322;28;20054;-47
2023/06/29 01:19:29;;;;;;;43.08;32.63;;;19.00;99.90;;;;;;4962356;28;20403;-52
2023/06/29 01:22:04;;;;;;;45.60;34.28;;;19.10;99.90;;;;;;4973240;28;20043;-49
2023/06/29 01:24:40;;;;;;;41.65;33.67;;;19.10;99.90;;;;;;4971856;28;20078;-50
2023/06/29 01:27:12;;;;;;;43.28;33.97;;;18.90;99.90;;;;;;4954010;28;20051;-51
2023/06/29 01:29:38;;;;;;;45.90;33.92;;;19.10;99.90;;;;;;4954177;28;20043;-49
2023/06/29 01:32:07;;;;;;;44.42;34.25;;;18.90;99.90;;;;;;4955596;28;20483;-51
2023/06/29 01:34:35;;;;;;;41.35;34.85;;;19.00;99.90;;;;;;4953931;28;20101;-48
2023/06/29 01:37:14;;;;;;;44.10;35.03;;;18.90;99.90;;;;;;4953746;28;20043;-49
2023/06/29 01:39:58;;;;;;;43.22;35.38;;;19.00;99.90;;;;;;4954514;28;20054;-47
2023/06/29 01:42:25;;;;;;;43.40;34.65;;;18.90;99.90;;;;;;4954335;28;20047;-48
2023/06/29 01:44:51;;;;;;;42.38;34.10;;;18.90;99.90;;;;;;4954285;28;20152;-49
2023/06/29 01:47:18;;;;;;;44.55;34.80;;;19.00;99.90;;;;;;4954346;28;20110;-46
2023/06/29 01:49:44;;;;;;;44.15;35.20;;;18.90;99.90;;;;;;4953269;28;20095;-50
2023/06/29 01:52:10;;;;;;;45.60;34.78;;;18.90;99.90;;;;;;4970285;28;20071;-49
2023/06/29 01:54:36;;;;;;;44.38;36.40;;;19.00;99.90;;;;;;4953767;28;20078;-50
2023/06/29 01:57:04;;;;;;;45.03;34.70;;;19.00;99.90;;;;;;4952980;28;20085;-50
2023/06/29 01:59:30;;;;;;;45.08;35.95;;;19.00;99.90;;;;;;4936060;28;20059;-51
2023/06/29 02:01:56;;;;;;;45.03;36.15;;;18.90;99.90;;;;;;4969149;28;20031;-48
2023/06/29 02:04:21;;;;;;;45.88;36.40;;;19.00;99.90;;;;;;4956880;28;20089;-48
2023/06/29 02:06:47;;;;;;;48.63;36.28;;;18.90;99.90;;;;;;4953910;28;20097;-47
2023/06/29 02:09:13;;;;;;;45.78;36.17;;;18.90;99.90;;;;;;4966363;28;20047;-47
2023/06/29 02:11:38;;;;;;;47.45;37.38;;;18.90;99.90;;;;;;4936368;28;20035;-48
2023/06/29 02:14:04;;;;;;;44.00;35.13;;;18.90;99.90;;;;;;4962895;28;20051;-49
2023/06/29 02:16:30;;;;;;;44.00;35.72;;;18.80;99.90;;;;;;4965974;28;20043;-48
2023/06/29 02:18:55;;;;;;;47.25;36.75;;;18.90;99.90;;;;;;4936676;28;20035;-50
2023/06/29 02:21:21;;;;;;;44.05;35.78;;;19.00;99.90;;;;;;4935493;29;20066;-49
2023/06/29 02:23:47;;;;;;;47.30;36.95;;;18.80;99.90;;;;;;4952082;29;20046;-50
2023/06/29 02:26:12;;;;;;;45.88;36.00;;;18.80;99.90;;;;;;4953547;29;20042;-49
2023/06/29 02:28:38;;;;;;;43.75;34.80;;;18.90;99.90;;;;;;4952749;29;20523;-49
2023/06/29 02:31:04;;;;;;;42.70;34.20;;;18.90;99.90;;;;;;4952199;29;20174;-47
2023/06/29 02:33:30;;;;;;;40.88;32.90;;;18.90;99.90;;;;;;4952566;29;20039;-48
2023/06/29 02:35:55;;;;;;;37.60;33.00;;;19.00;99.90;;;;;;4936446;29;20031;-51
2023/06/29 02:38:21;;;;;;;38.33;31.92;;;18.80;99.90;;;;;;4953174;29;20042;-49
2023/06/29 02:40:47;;;;;;;40.67;31.95;;;18.80;99.90;;;;;;4953517;29;20090;-50
2023/06/29 02:43:14;;;;;;;38.10;30.33;;;18.80;99.90;;;;;;4953176;29;20574;-50
2023/06/29 02:45:39;;;;;;;37.08;31.60;;;18.80;99.90;;;;;;4936171;28;20517;-52
2023/06/29 02:48:05;;;;;;;37.60;30.17;;;18.80;99.90;;;;;;4952773;28;20047;-47
2023/06/29 02:50:31;;;;;;;37.78;31.45;;;18.90;99.90;;;;;;4962334;28;20043;-48
2023/06/29 02:52:57;;;;;;;36.63;30.25;;;18.80;99.90;;;;;;4960503;28;20061;-49
2023/06/29 02:55:23;;;;;;;33.88;29.73;;;18.90;99.90;;;;;;4964420;28;20470;-50
2023/06/29 02:57:48;;;;;;;38.70;31.85;;;18.90;99.90;;;;;;4972064;28;20027;-48
2023/06/29 03:00:15;;;;;;;38.10;31.60;;;18.80;99.90;;;;;;4972292;28;20045;-48
2023/06/29 03:02:40;;;;;;;37.05;31.25;;;18.90;99.90;;;;;;4969607;28;20090;-50
2023/06/29 03:05:06;;;;;;;37.63;30.83;;;18.90;99.90;;;;;;4956642;28;20043;-51
2023/06/29 03:07:32;;;;;;;40.67;30.80;;;18.90;99.90;;;;;;4971778;28;20482;-51
2023/06/29 03:09:58;;;;;;;38.83;31.80;;;18.90;99.90;;;;;;4971211;28;20066;-49
2023/06/29 03:12:24;;;;;;;42.63;32.63;;;18.80;99.90;;;;;;4964224;28;20031;-49
2023/06/29 03:14:49;;;;;;;39.35;31.33;;;18.90;99.90;;;;;;4972145;28;20077;-48
2023/06/29 03:17:15;;;;;;;40.55;31.60;;;18.90;99.90;;;;;;4972011;28;20070;-49
2023/06/29 03:19:41;;;;;;;39.72;30.80;;;18.80;99.90;;;;;;4972100;28;20050;-49
2023/06/29 03:22:07;;;;;;;36.25;31.02;;;18.80;99.90;;;;;;4970551;28;20034;-48
2023/06/29 03:24:32;;;;;;;41.55;31.73;;;18.90;99.90;;;;;;4940452;28;20064;-47
2023/06/29 03:26:58;;;;;;;42.60;31.05;;;18.80;99.90;;;;;;4967400;28;20394;-49
2023/06/29 03:29:24;;;;;;;40.60;30.92;;;18.90;99.90;;;;;;4957554;28;20134;-47
2023/06/29 03:31:50;;;;;;;40.92;32.53;;;18.90;99.90;;;;;;4956189;28;20035;-46
2023/06/29 03:34:16;;;;;;;39.88;31.88;;;18.80;99.90;;;;;;4960101;28;20042;-50
2023/06/29 03:36:41;;;;;;;38.95;33.58;;;19.00;99.90;;;;;;4939460;28;20039;-50
2023/06/29 03:39:07;;;;;;;42.25;32.80;;;18.80;99.90;;;;;;4956627;28;20069;-50
2023/06/29 03:41:33;;;;;;;48.90;35.10;;;18.80;99.90;;;;;;4961616;28;20050;-49
2023/06/29 03:43:58;;;;;;;44.67;34.83;;;18.90;99.90;;;;;;4976003;28;20046;-49
2023/06/29 03:46:24;;;;;;;44.10;34.40;;;19.00;99.90;;;;;;4965017;28;20058;-49
2023/06/29 03:48:50;;;;;;;40.42;34.53;;;18.80;99.90;;;;;;4956027;28;20039;-48
2023/06/29 03:51:16;;;;;;;38.15;32.40;;;18.90;99.90;;;;;;4955364;28;20087;-49
2023/06/29 03:53:41;;;;;;;42.78;33.83;;;18.90;99.90;;;;;;4956273;28;20057;-47
2023/06/29 03:56:07;;;;;;;41.88;34.42;;;19.00;99.90;;;;;;4973319;28;20034;-47
2023/06/29 03:58:33;;;;;;;41.00;33.72;;;18.80;99.90;;;;;;4956816;28;20039;-48
2023/06/29 04:00:58;;;;;;;41.63;33.83;;;18.90;99.90;;;;;;4959600;28;20047;-47
2023/06/29 04:03:24;;;;;;;42.03;33.05;;;19.00;99.90;;;;;;4955986;28;20071;-47
2023/06/29 04:05:50;;;;;;;40.35;32.50;;;19.00;99.90;;;;;;4956073;28;20043;-50
2023/06/29 04:08:16;;;;;;;41.35;33.78;;;19.00;99.90;;;;;;4922201;28;20031;-49
2023/06/29 04:10:41;;;;;;;37.15;30.70;;;18.90;99.90;;;;;;4969840;28;20046;-47
2023/06/29 04:13:07;;;;;;;40.50;31.95;;;18.90;99.90;;;;;;4971156;28;20031;-45
2023/06/29 04:15:33;;;;;;;39.90;30.98;;;18.90;99.90;;;;;;4938856;28;20054;-48
2023/06/29 04:17:58;;;;;;;38.17;31.77;;;19.00;99.90;;;;;;4956039;28;20035;-49
2023/06/29 04:20:24;;;;;;;39.67;31.20;;;18.90;99.90;;;;;;4938271;28;20049;-49
2023/06/29 04:22:50;;;;;;;40.75;31.98;;;19.10;99.90;;;;;;4955396;28;20126;-49
2023/06/29 04:25:16;;;;;;;36.88;31.02;;;19.00;99.90;;;;;;4955647;28;20035;-50
2023/06/29 04:27:42;;;;;;;36.70;30.70;;;19.00;99.90;;;;;;4974664;28;20482;-49
2023/06/29 04:30:08;;;;;;;41.33;32.75;;;19.20;99.90;;;;;;4974591;28;20035;-51
2023/06/29 04:32:35;;;;;;;38.90;31.95;;;19.20;99.90;;;;;;4974648;28;20054;-49
2023/06/29 04:35:01;;;;;;;35.40;31.13;;;19.20;99.90;;;;;;4970486;28;20035;-48
2023/06/29 04:37:35;;;;;;;40.00;31.65;;;19.10;99.90;;;;;;4970007;28;20046;-49
2023/06/29 04:40:04;;;;;;;41.53;32.42;;;19.10;99.90;;;;;;4953727;28;20039;-50
2023/06/29 04:42:31;;;;;;;40.22;32.42;;;19.30;99.90;;;;;;4955134;28;20376;-47
2023/06/29 04:45:00;;;;;;;44.60;32.55;;;19.30;99.90;;;;;;4955209;28;20051;-48
2023/06/29 04:47:32;;;;;;;38.45;32.03;;;19.20;99.90;;;;;;4973952;28;20116;-50
2023/06/29 04:49:57;;;;;;;38.35;32.55;;;19.20;99.90;;;;;;4973722;28;20138;-49
2023/06/29 04:52:23;;;;;;;40.65;33.10;;;19.20;99.90;;;;;;4973925;28;20106;-49
2023/06/29 04:54:49;;;;;;;40.25;32.83;;;19.30;99.90;;;;;;4964993;28;20050;-50
2023/06/29 04:57:14;;;;;;;45.13;33.83;;;19.10;99.90;;;;;;4955146;28;20043;-46
2023/06/29 04:59:40;;;;;;;39.85;33.67;;;19.20;99.90;;;;;;4954873;28;20075;-45
2023/06/29 05:02:06;;;;;;;40.83;32.22;;;19.20;99.90;;;;;;4967375;28;20046;-45
2023/06/29 05:04:31;;;;;;;41.67;32.63;;;19.40;99.90;;;;;;4974338;28;20049;-48
2023/06/29 05:06:57;;;;;;;39.95;32.75;;;19.30;99.90;;;;;;4965783;28;20423;-49
2023/06/29 05:09:23;;;;;;;42.10;32.30;;;19.20;99.90;;;;;;4954803;28;20390;-50
2023/06/29 05:11:48;;;;;;;41.83;33.05;;;19.30;99.90;;;;;;4937940;28;20475;-46
2023/06/29 05:14:14;;;;;;;39.28;33.08;;;19.30;99.90;;;;;;4973630;28;20074;-50
2023/06/29 05:16:40;;;;;;;40.80;34.22;;;19.30;99.90;;;;;;4973709;28;20049;-50
2023/06/29 05:19:05;;;;;;;42.83;33.25;;;19.30;99.90;;;;;;4973900;28;20047;-50
2023/06/29 05:21:31;;;;;;;41.55;32.88;;;19.30;99.90;;;;;;4973563;28;20042;-49
2023/06/29 05:23:57;;;;;;;42.38;33.85;;;19.30;99.90;;;;;;4965246;28;20043;-52
2023/06/29 05:26:23;;;;;;;40.50;34.13;;;19.40;99.90;;;;;;4954675;28;20506;-46
2023/06/29 05:28:49;;;;;;;42.38;33.15;;;19.20;99.90;;;;;;4961312;28;20069;-48
2023/06/29 05:31:14;;;;;;;41.30;33.17;;;19.40;99.90;;;;;;4960429;28;20127;-48
2023/06/29 05:33:40;;;;;;;40.05;33.35;;;19.30;99.90;;;;;;4937053;28;20134;-50
2023/06/29 05:36:06;;;;;;;44.25;34.85;;;19.20;99.90;;;;;;4956517;28;20035;-51
2023/06/29 05:38:31;;;;;;;40.97;33.50;;;19.40;99.90;;;;;;4957645;28;20047;-47
2023/06/29 05:40:57;;;;;;;45.72;34.47;;;19.40;99.90;;;;;;4937097;28;20514;-49
2023/06/29 05:43:23;;;;;;;43.83;33.33;;;19.30;99.90;;;;;;4953578;28;20039;-50
2023/06/29 05:45:49;;;;;;;45.33;35.13;;;19.20;99.90;;;;;;4953949;28;20089;-47
2023/06/29 05:48:15;;;;;;;46.80;36.95;;;19.40;99.90;;;;;;4936426;28;20397;-50
2023/06/29 05:50:40;;;;;;;45.30;35.80;;;19.50;99.90;;;;;;4953327;28;20438;-52
2023/06/29 05:53:06;;;;;;;44.42;35.97;;;19.50;99.90;;;;;;4964552;28;20089;-49
2023/06/29 05:55:32;;;;;;;45.92;35.92;;;19.40;99.90;;;;;;4973192;28;20038;-52
2023/06/29 05:57:57;;;;;;;51.83;38.65;;;19.40;99.90;;;;;;4966053;28;20031;-51
2023/06/29 06:00:23;;;;;;;46.30;36.95;;;19.50;99.90;;;;;;4953527;28;20043;-50
2023/06/29 06:02:49;;;;;;;46.00;37.95;;;19.50;99.90;;;;;;4953961;28;20114;-48
2023/06/29 06:05:15;;;;;;;50.53;39.80;;;19.40;99.90;;;;;;4953909;28;20051;-48
2023/06/29 06:07:40;;;;;;;49.08;38.78;;;19.30;99.90;;;;;;4962290;28;20152;-47
2023/06/29 06:10:06;;;;;;;49.20;37.95;;;19.50;99.90;;;;;;4956572;28;20035;-48
2023/06/29 06:12:32;;;;;;;51.95;39.95;;;19.50;99.90;;;;;;4953149;28;20058;-49
2023/06/29 06:14:58;;;;;;;48.15;36.97;;;19.40;99.90;;;;;;4957196;28;20030;-51
2023/06/29 06:17:24;;;;;;;49.15;37.67;;;19.60;99.90;;;;;;4936267;28;20039;-48
2023/06/29 06:19:49;;;;;;;44.47;36.00;;;19.50;99.90;;;;;;4953217;28;20079;-48
2023/06/29 06:22:15;;;;;;;47.55;36.33;;;19.40;99.90;;;;;;4936267;28;20073;-49
2023/06/29 06:24:41;;;;;;;46.70;36.67;;;19.50;99.90;;;;;;4953469;28;20368;-49
2023/06/29 06:27:07;;;;;;;48.25;37.67;;;19.40;99.90;;;;;;4968112;28;20043;-48
2023/06/29 06:29:33;;;;;;;47.15;36.78;;;19.40;99.90;;;;;;4972857;28;20074;-48
2023/06/29 06:32:00;;;;;;;42.97;34.97;;;19.50;99.90;;;;;;4972562;28;20042;-47
2023/06/29 06:34:30;;;;;;;46.45;36.33;;;19.40;99.90;;;;;;4955362;28;20051;-46
2023/06/29 06:36:57;;;;;;;43.25;34.25;;;19.50;99.90;;;;;;4952943;28;20035;-50
2023/06/29 06:39:23;;;;;;;42.80;33.05;;;19.70;99.90;;;;;;4953317;28;20058;-51
2023/06/29 06:41:49;;;;;;;41.72;34.67;;;19.50;99.90;;;;;;4963291;28;20046;-51
2023/06/29 06:44:15;;;;;;;43.38;34.80;;;19.70;99.90;;;;;;4960036;28;20131;-48
2023/06/29 06:46:41;;;;;;;40.72;31.95;;;19.80;99.90;;;;;;4953058;28;20114;-48
2023/06/29 06:49:07;;;;;;;39.70;31.70;;;19.80;99.90;;;;;;4952901;28;20054;-47
2023/06/29 06:51:32;;;;;;;43.63;33.67;;;19.80;99.90;;;;;;4968300;28;20090;-50
2023/06/29 06:53:58;;;;;;;37.35;32.30;;;19.70;99.90;;;;;;4972179;28;20038;-48
2023/06/29 06:56:24;;;;;;;43.17;34.00;;;19.70;99.90;;;;;;4955606;28;20046;-46
2023/06/29 06:58:50;;;;;;;43.97;33.85;;;19.90;99.90;;;;;;4963537;28;20172;-49
2023/06/29 07:01:16;;;;;;;44.15;34.65;;;19.80;99.90;;;;;;4972349;28;20114;-48
2023/06/29 07:03:42;;;;;;;43.75;34.00;;;19.80;99.90;;;;;;4959340;28;20063;-51
2023/06/29 07:06:07;;;;;;;41.78;33.65;;;20.10;99.90;;;;;;4935895;28;20580;-48
2023/06/29 07:08:35;;;;;;;44.75;34.72;;;20.10;99.90;;;;;;4935776;28;20483;-46
2023/06/29 07:11:01;;;;;;;46.90;35.83;;;20.00;99.90;;;;;;4935634;28;20051;-47
2023/06/29 07:13:27;;;;;;;44.70;35.08;;;19.90;99.90;;;;;;4969777;28;20039;-48
2023/06/29 07:15:52;;;;;;;43.83;35.08;;;20.10;99.90;;;;;;4965260;28;20101;-50
2023/06/29 07:18:18;;;;;;;46.25;35.95;;;20.00;99.90;;;;;;4971658;28;20035;-48
2023/06/29 07:20:44;;;;;;;47.97;36.17;;;20.00;99.90;;;;;;4971578;28;20035;-51
2023/06/29 07:23:10;;;;;;;45.45;37.53;;;20.20;99.90;;;;;;4958738;28;20398;-47
2023/06/29 07:25:35;;;;;;;46.78;37.35;;;20.10;99.90;;;;;;4972119;28;20035;-46
2023/06/29 07:28:01;;;;;;;47.42;36.20;;;20.10;99.90;;;;;;4934411;28;20475;-48
2023/06/29 07:30:27;;;;;;;51.35;38.92;;;20.10;99.90;;;;;;4953007;28;21363;-48
2023/06/29 07:32:53;;;;;;;47.35;36.58;;;20.10;99.90;;;;;;4952619;28;20082;-51
2023/06/29 07:35:19;;;;;;;47.38;37.22;;;20.20;99.90;;;;;;4935597;28;20039;-49
2023/06/29 07:37:44;;;;;;;48.75;37.78;;;20.40;99.90;;;;;;4952642;28;20037;-51
2023/06/29 07:40:11;;;;;;;42.20;34.75;;;20.30;99.90;;;;;;4935134;28;20114;-46
2023/06/29 07:42:37;;;;;;;48.30;35.92;;;20.60;99.90;;;;;;4952130;28;20043;-49
2023/06/29 07:45:05;;;;;;;42.63;34.30;;;20.50;99.90;;;;;;4952795;28;20054;-47
2023/06/29 07:47:31;;;;;;;44.92;33.47;;;20.70;99.90;;;;;;4952482;28;20043;-48
2023/06/29 07:49:56;;;;;;;46.22;33.08;;;20.80;99.90;;;;;;4934720;28;20510;-48
2023/06/29 07:52:22;;;;;;;42.83;32.10;;;20.80;99.90;;;;;;4935248;28;20055;-50
2023/06/29 07:54:49;;;;;;;42.80;31.33;;;20.90;99.90;;;;;;4935192;28;20078;-49
2023/06/29 07:57:15;;;;;;;41.65;30.90;;;20.80;99.90;;;;;;4952542;28;20073;-48
2023/06/29 07:59:40;;;;;;;40.35;31.48;;;20.90;99.90;;;;;;4952312;28;20118;-51
2023/06/29 08:02:06;;;;;;;43.58;33.42;;;21.00;99.90;;;;;;4965826;28;20455;-50
2023/06/29 08:04:33;;;;;;;42.42;32.42;;;20.90;99.90;;;;;;4952515;28;20114;-48
2023/06/29 08:06:58;;;;;;;43.03;32.83;;;21.00;99.90;;;;;;4960164;28;20043;-49
2023/06/29 08:09:24;;;;;;;43.63;32.70;;;20.80;99.90;;;;;;4938530;28;20466;-50
2023/06/29 08:11:50;;;;;;;41.88;32.17;;;20.90;99.90;;;;;;4938131;28;20178;-51
2023/06/29 08:14:16;;;;;;;42.03;30.10;;;20.80;99.90;;;;;;4960863;28;20031;-50
2023/06/29 08:16:41;;;;;;;38.25;30.50;;;20.90;99.90;;;;;;4968176;28;20158;-49
2023/06/29 08:19:07;;;;;;;41.95;31.40;;;20.80;99.90;;;;;;4975213;28;20046;-48
2023/06/29 08:21:32;;;;;;;36.92;28.45;;;20.80;99.90;;;;;;4955884;28;20047;-49
2023/06/29 08:23:58;;;;;;;38.30;28.65;;;20.70;99.90;;;;;;4938034;28;20039;-50
2023/06/29 08:26:24;;;;;;;36.13;27.58;;;20.70;99.90;;;;;;4938385;28;20043;-49
2023/06/29 08:28:51;;;;;;;34.80;26.10;;;20.80;99.90;;;;;;4963002;28;20049;-52
2023/06/29 08:31:19;;;;;;;36.20;28.45;;;20.70;99.90;;;;;;4974656;28;20034;-50
2023/06/29 08:33:45;;;;;;;36.33;27.73;;;20.70;99.90;;;;;;4968035;28;20085;-47
2023/06/29 08:36:11;;;;;;;34.58;28.02;;;20.80;99.90;;;;;;4938391;28;20138;-48
2023/06/29 08:38:37;;;;;;;38.33;29.48;;;20.80;99.90;;;;;;4957807;28;20122;-50
2023/06/29 08:41:05;;;;;;;37.10;28.63;;;20.90;99.90;;;;;;4974788;28;20062;-51
2023/06/29 08:43:30;;;;;;;38.65;28.38;;;20.90;99.90;;;;;;4974782;28;20041;-47
2023/06/29 08:45:56;;;;;;;40.90;29.33;;;20.90;99.90;;;;;;4938305;28;20047;-50
2023/06/29 08:48:23;;;;;;;37.45;27.20;;;20.90;99.90;;;;;;4968716;28;20035;-51
2023/06/29 08:50:54;;;;;;;36.67;28.10;;;20.90;99.90;;;;;;4954574;28;20074;-49
2023/06/29 08:53:20;;;;;;;38.75;28.55;;;20.80;99.90;;;;;;4954711;28;20049;-49
2023/06/29 08:55:47;;;;;;;40.15;29.17;;;20.80;99.90;;;;;;4955078;28;20035;-49
2023/06/29 08:58:14;;;;;;;37.13;28.73;;;20.80;99.90;;;;;;4955334;28;20035;-50
2023/06/29 09:00:42;;;;;;;37.72;27.38;;;20.70;99.90;;;;;;4938001;28;20054;-48
2023/06/29 09:03:08;;;;;;;35.13;27.48;;;20.80;99.90;;;;;;4954895;28;20406;-48
2023/06/29 09:05:36;;;;;;;37.90;27.98;;;20.80;99.90;;;;;;4955049;28;20520;-49
2023/06/29 09:08:02;;;;;;;37.70;28.40;;;20.80;99.90;;;;;;4954717;28;20098;-46
2023/06/29 09:10:28;;;;;;;35.58;28.30;;;20.80;99.90;;;;;;4954962;28;20039;-50
2023/06/29 09:12:54;;;;;;;37.90;27.95;;;20.80;99.90;;;;;;4955032;28;20046;-47
2023/06/29 09:15:20;;;;;;;35.90;27.30;;;20.90;99.90;;;;;;4963088;28;20066;-47
2023/06/29 09:17:54;;;;;;;37.63;27.48;;;20.90;99.90;;;;;;4953912;28;20171;-47
2023/06/29 09:20:20;;;;;;;34.55;28.13;;;21.10;99.90;;;;;;4954618;28;20031;-52
2023/06/29 09:22:51;;;;;;;39.72;28.73;;;21.10;99.90;;;;;;4954240;28;20046;-49
2023/06/29 09:25:17;;;;;;;36.97;27.20;;;21.30;99.90;;;;;;4954511;28;20038;-52
2023/06/29 09:27:43;;;;;;;35.67;28.05;;;21.40;99.90;;;;;;4954438;28;20486;-50
2023/06/29 09:30:16;;;;;;;33.67;25.65;;;21.40;99.90;;;;;;4954843;28;20042;-49
2023/06/29 09:32:42;;;;;;;32.70;25.85;;;21.40;99.90;;;;;;4953876;28;20035;-51
2023/06/29 09:35:09;;;;;;;34.03;26.05;;;21.40;99.90;;;;;;4954652;28;20031;-52
2023/06/29 09:37:36;;;;;;;38.00;26.95;;;21.50;99.90;;;;;;4954311;28;20042;-52
2023/06/29 09:40:05;;;;;;;36.42;26.90;;;21.60;99.90;;;;;;4954325;28;20039;-53
2023/06/29 09:42:37;;;;;;;34.50;26.15;;;21.60;99.90;;;;;;4953673;28;20043;-51
2023/06/29 09:45:11;;;;;;;31.83;25.73;;;21.60;99.90;;;;;;4937162;29;20503;-51
2023/06/29 09:47:48;;;;;;;33.22;25.00;;;21.50;99.90;;;;;;4954671;28;20050;-51
2023/06/29 09:50:21;;;;;;;33.50;25.30;;;21.40;99.90;;;;;;4953909;28;20054;-52
2023/06/29 09:52:50;;;;;;;34.70;26.60;;;21.50;99.90;;;;;;4937226;28;20043;-53
2023/06/29 09:55:16;;;;;;;33.38;26.50;;;21.50;99.90;;;;;;4954135;28;20063;-51
2023/06/29 09:57:43;;;;;;;33.38;25.65;;;21.60;99.90;;;;;;4954536;28;20043;-53
2023/06/29 10:00:13;;;;;;;32.25;25.50;;;21.60;99.90;;;;;;4953911;28;20399;-50
2023/06/29 10:02:42;;;;;;;33.22;26.05;;;21.60;99.90;;;;;;4972976;28;20118;-53
2023/06/29 10:05:09;;;;;;;32.92;25.90;;;21.70;99.90;;;;;;4953926;28;20098;-49
2023/06/29 10:07:36;;;;;;;35.10;27.08;;;21.80;99.90;;;;;;4953972;29;20043;-49
2023/06/29 10:10:04;;;;;;;36.90;26.50;;;22.00;99.90;;;;;;4965151;28;20091;-48
2023/06/29 10:12:31;;;;;;;35.35;27.17;;;22.10;99.90;;;;;;4936844;29;20057;-47
2023/06/29 10:15:08;;;;;;;37.85;26.90;;;22.20;99.90;;;;;;4954259;28;20047;-48
2023/06/29 10:17:55;;;;;;;36.83;27.35;;;22.20;99.90;;;;;;4953850;28;20110;-47
2023/06/29 10:20:25;;;;;;;33.97;27.77;;;22.30;99.90;;;;;;4936804;29;20066;-47
2023/06/29 10:22:52;;;;;;;33.50;24.70;;;22.30;99.90;;;;;;4953315;29;20395;-49
2023/06/29 10:25:21;;;;;;;34.30;26.48;;;22.20;99.90;;;;;;4953927;28;20102;-50
2023/06/29 10:27:49;;;;;;;35.60;27.85;;;22.20;99.90;;;;;;4953950;28;20075;-50
2023/06/29 10:30:20;;;;;;;33.25;26.88;;;22.20;99.90;;;;;;4936237;28;20055;-47
2023/06/29 10:32:49;;;;;;;33.53;27.77;;;22.30;99.90;;;;;;4953769;28;20071;-51
2023/06/29 10:35:15;;;;;;;32.13;26.70;;;22.40;99.90;;;;;;4953815;28;20039;-52
2023/06/29 10:37:42;;;;;;;36.45;29.52;;;22.60;99.90;;;;;;4953923;28;20043;-50
2023/06/29 10:40:11;;;;;;;34.25;27.88;;;22.70;99.90;;;;;;4953824;29;20043;-50
2023/06/29 10:42:39;;;;;;;38.20;29.75;;;22.90;99.90;;;;;;4952217;29;20043;-50
2023/06/29 10:45:30;;;;;;;33.60;28.23;;;23.10;99.90;;;;;;4953900;28;20130;-47
2023/06/29 10:47:56;;;;;;;38.17;28.40;;;23.30;99.90;;;;;;4933678;29;20062;-48
2023/06/29 10:50:29;;;;;;;37.20;29.52;;;23.40;99.90;;;;;;4954307;28;20056;-47
2023/06/29 10:52:59;;;;;;;35.92;28.98;;;23.60;99.90;;;;;;4953106;28;20394;-47
2023/06/29 10:55:31;;;;;;;40.22;30.77;;;23.70;99.90;;;;;;4935128;29;20231;-50
2023/06/29 10:58:05;;;;;;;34.33;28.58;;;23.70;99.90;;;;;;4955723;28;20069;-50
2023/06/29 11:00:32;;;;;;;36.67;29.75;;;23.90;99.90;;;;;;4953215;29;20043;-48
2023/06/29 11:02:59;;;;;;;33.55;27.38;;;24.00;99.90;;;;;;4955254;28;20122;-51
2023/06/29 11:05:25;;;;;;;34.35;27.23;;;24.00;99.90;;;;;;4951442;29;20039;-51
2023/06/29 11:07:52;;;;;;;35.85;27.27;;;24.00;99.90;;;;;;4956017;28;20047;-53
2023/06/29 11:10:21;;;;;;;34.60;26.70;;;24.10;99.90;;;;;;4955800;28;20215;-50
2023/06/29 11:12:51;;;;;;;32.03;26.08;;;24.30;99.90;;;;;;4953938;28;20050;-50
2023/06/29 11:15:19;;;;;;;31.73;26.20;;;24.40;99.90;;;;;;4956318;28;20047;-47
2023/06/29 11:17:47;;;;;;;34.00;26.55;;;24.60;99.90;;;;;;4952314;28;20039;-52
2023/06/29 11:20:15;;;;;;;32.40;26.02;;;24.80;99.90;;;;;;4951680;28;20049;-51
2023/06/29 11:22:41;;;;;;;30.95;24.63;;;24.90;99.90;;;;;;4953105;28;22494;-49
2023/06/29 11:25:08;;;;;;;32.55;26.27;;;24.90;99.90;;;;;;4958518;28;20099;-47
2023/06/29 11:27:34;;;;;;;33.83;26.60;;;25.00;99.90;;;;;;4953148;28;20035;-47
2023/06/29 11:30:00;;;;;;;30.95;24.15;;;25.20;99.90;;;;;;4935471;28;20039;-49
2023/06/29 11:32:29;;;;;;;33.50;24.58;;;25.30;99.90;;;;;;4933934;28;20047;-47
2023/06/29 11:34:59;;;;;;;36.08;26.52;;;25.20;99.90;;;;;;4951381;28;20043;-48
2023/06/29 11:37:26;;;;;;;37.63;25.90;;;25.10;99.90;;;;;;4955792;28;20111;-48
2023/06/29 11:39:52;;;;;;;33.38;25.52;;;25.00;99.90;;;;;;4958021;28;20079;-47
2023/06/29 11:42:21;;;;;;;39.60;23.95;;;25.10;99.90;;;;;;4954870;28;20039;-46
2023/06/29 11:45:04;;;;;;;30.50;24.42;;;25.20;99.90;;;;;;4957420;28;20045;-48
2023/06/29 11:47:30;;;;;;;32.80;25.42;;;25.20;99.90;;;;;;4923214;28;20039;-46
2023/06/29 11:49:59;;;;;;;33.92;25.90;;;25.10;99.90;;;;;;4956318;28;20204;-49
2023/06/29 11:52:26;;;;;;;36.05;26.17;;;25.00;99.90;;;;;;4958508;28;20047;-48
2023/06/29 11:54:52;;;;;;;35.33;27.67;;;24.90;99.90;;;;;;4955144;29;20047;-47
2023/06/29 11:57:18;;;;;;;35.25;26.48;;;24.80;99.90;;;;;;4954694;29;20479;-55
2023/06/29 11:59:45;;;;;;;36.05;27.23;;;24.70;99.90;;;;;;4955522;28;20078;-48
2023/06/29 12:02:10;;;;;;;33.58;26.92;;;24.70;99.90;;;;;;4955198;28;20509;-47
2023/06/29 12:04:37;;;;;;;34.97;26.58;;;24.70;99.90;;;;;;4958401;28;20039;-48
2023/06/29 12:07:02;;;;;;;33.05;25.98;;;24.80;99.90;;;;;;4923392;29;20050;-48
2023/06/29 12:09:32;;;;;;;34.35;26.85;;;24.80;99.90;;;;;;4960769;28;20039;-50
2023/06/29 12:12:00;;;;;;;32.63;25.55;;;24.80;99.90;;;;;;4965007;28;20043;-52
2023/06/29 12:14:29;;;;;;;38.08;26.60;;;24.80;99.90;;;;;;4956429;29;20040;-51
2023/06/29 12:16:57;;;;;;;32.17;25.98;;;24.80;99.90;;;;;;4950604;29;20486;-49
2023/06/29 12:19:28;;;;;;;32.08;25.05;;;24.80;99.90;;;;;;4954922;28;20047;-49
2023/06/29 12:21:53;;;;;;;32.25;25.33;;;24.90;99.90;;;;;;4955598;28;20505;-51
2023/06/29 12:24:19;;;;;;;33.42;24.83;;;24.90;99.90;;;;;;4956057;29;20043;-52
2023/06/29 12:26:45;;;;;;;30.33;24.55;;;24.90;99.90;;;;;;4939166;29;20047;-50